createdAt,value
2022-12-17T00:01:52.184Z,99097.00
2022-12-17T00:04:38.292Z,99091.59
2022-12-17T00:07:24.071Z,99097.63
2022-12-17T00:10:21.131Z,99092.78
2022-12-17T00:13:07.357Z,99095.06
2022-12-17T00:15:55.209Z,99090.22
2022-12-17T00:18:41.951Z,99098.13
2022-12-17T00:21:29.176Z,99090.81
2022-12-17T00:24:15.127Z,99104.41
2022-12-17T00:27:01.004Z,99105.22
2022-12-17T00:29:46.738Z,99100.84
2022-12-17T00:32:34.101Z,99108.16
2022-12-17T00:35:19.729Z,99109.00
2022-12-17T00:38:05.720Z,99112.31
2022-12-17T00:40:51.653Z,99103.56
2022-12-17T00:43:38.198Z,99102.72
2022-12-17T00:46:24.476Z,99106.28
2022-12-17T00:49:11.808Z,99108.75
2022-12-17T00:51:57.623Z,99113.97
2022-12-17T00:54:43.320Z,99114.78
2022-12-17T00:57:28.824Z,99107.72
2022-12-17T01:00:14.505Z,99105.44
2022-12-17T01:03:00.368Z,99110.88
2022-12-17T01:05:47.604Z,99120.31
2022-12-17T01:08:34.145Z,99116.16
2022-12-17T01:11:20.583Z,99147.72
2022-12-17T01:14:07.030Z,99137.88
2022-12-17T01:16:53.199Z,99140.84
2022-12-17T01:19:42.156Z,99146.88
2022-12-17T01:22:29.397Z,99133.28
2022-12-17T01:25:15.416Z,99138.72
2022-12-17T01:28:01.206Z,99128.94
2022-12-17T01:30:47.015Z,99131.41
2022-12-17T01:33:33.148Z,99117.59
2022-12-17T01:36:19.013Z,99124.94
2022-12-17T01:39:05.900Z,99109.91
2022-12-17T01:41:51.711Z,99116.41
2022-12-17T01:45:13.526Z,99129.38
2022-12-17T01:48:06.228Z,99134.38
2022-12-17T01:50:55.909Z,99128.09
2022-12-17T01:53:47.771Z,99137.09
2022-12-17T01:56:35.755Z,99148.41
2022-12-17T01:59:22.981Z,99160.09
2022-12-17T02:02:08.931Z,99176.59
2022-12-17T02:04:54.988Z,99186.19
2022-12-17T02:08:08.325Z,99192.22
2022-12-17T02:11:03.909Z,99209.75
2022-12-17T02:13:55.921Z,99202.22
2022-12-17T02:16:57.350Z,99213.44
2022-12-17T02:19:59.912Z,99232.03
2022-12-17T02:23:00.594Z,99228.03
2022-12-17T02:26:04.579Z,99242.22
2022-12-17T02:28:53.747Z,99250.97
2022-12-17T02:31:41.106Z,99258.28
2022-12-17T02:34:26.791Z,99274.59
2022-12-17T02:37:12.669Z,99275.00
2022-12-17T02:39:58.872Z,99275.34
2022-12-17T02:42:41.853Z,99291.00
2022-12-17T02:45:29.434Z,99294.31
2022-12-17T02:48:16.643Z,99287.00
2022-12-17T02:51:02.510Z,99294.13
2022-12-17T02:53:50.899Z,99294.97
2022-12-17T02:56:36.802Z,99303.94
2022-12-17T02:59:24.756Z,99296.84
2022-12-17T03:02:12.373Z,99315.44
2022-12-17T03:05:06.632Z,99305.25
2022-12-17T03:08:04.016Z,99304.41
2022-12-17T03:10:50.211Z,99307.13
2022-12-17T03:13:42.480Z,99288.94
2022-12-17T03:16:35.764Z,99303.97
2022-12-17T03:19:24.812Z,99304.56
2022-12-17T03:22:10.753Z,99309.56
2022-12-17T03:24:56.688Z,99312.28
2022-12-17T03:27:43.283Z,99305.00
2022-12-17T03:30:35.526Z,99306.66
2022-12-17T03:33:22.444Z,99309.38
2022-12-17T03:36:23.745Z,99302.91
2022-12-17T03:39:09.579Z,99298.28
2022-12-17T03:41:55.191Z,99308.94
2022-12-17T03:44:41.062Z,99313.31
2022-12-17T03:47:26.870Z,99314.97
2022-12-17T03:50:12.838Z,99314.75
2022-12-17T03:53:00.039Z,99313.69
2022-12-17T03:55:45.751Z,99321.00
2022-12-17T03:58:31.747Z,99327.53
2022-12-17T04:01:17.345Z,99330.25
2022-12-17T04:04:03.173Z,99340.28
2022-12-17T04:06:48.711Z,99346.56
2022-12-17T04:09:35.710Z,99344.03
2022-12-17T04:12:21.560Z,99334.84
2022-12-17T04:15:07.108Z,99328.31
2022-12-17T04:17:52.763Z,99347.16
2022-12-17T04:20:38.715Z,99346.91
2022-12-17T04:23:24.416Z,99360.31
2022-12-17T04:26:08.141Z,99368.66
2022-12-17T04:28:53.640Z,99365.75
2022-12-17T04:31:39.601Z,99364.91
2022-12-17T04:34:25.498Z,99381.22
2022-12-17T04:37:11.255Z,99379.56
2022-12-17T04:39:57.240Z,99374.13
2022-12-17T04:42:40.862Z,99379.56
2022-12-17T04:45:24.347Z,99376.81
2022-12-17T04:48:10.520Z,99387.50
2022-12-17T04:50:56.269Z,99400.47
2022-12-17T04:53:42.198Z,99399.25
2022-12-17T04:56:27.962Z,99387.41
2022-12-17T04:59:15.079Z,99404.13
2022-12-17T05:02:01.051Z,99407.06
2022-12-17T05:04:46.836Z,99398.50
2022-12-17T05:07:32.588Z,99412.34
2022-12-17T05:10:18.391Z,99419.66
2022-12-17T05:13:04.392Z,99416.31
2022-12-17T05:15:53.480Z,99412.53
2022-12-17T05:18:39.494Z,99417.16
2022-12-17T05:21:28.091Z,99421.97
2022-12-17T05:24:17.773Z,99447.50
2022-12-17T05:27:03.938Z,99438.50
2022-12-17T05:29:49.627Z,99454.81
2022-12-17T05:32:36.554Z,99451.84
2022-12-17T05:35:22.487Z,99447.25
2022-12-17T05:38:16.635Z,99454.38
2022-12-17T05:41:02.122Z,99457.09
2022-12-17T05:43:47.980Z,99460.66
2022-12-17T05:46:33.609Z,99463.56
2022-12-17T05:49:20.764Z,99465.44
2022-12-17T05:52:06.399Z,99452.31
2022-12-17T05:54:52.136Z,99465.31
2022-12-17T05:57:38.064Z,99478.88
2022-12-17T06:00:26.101Z,99488.91
2022-12-17T06:03:17.822Z,99488.91
2022-12-17T06:06:05.988Z,99512.53
2022-12-17T06:08:52.051Z,99503.78
2022-12-17T06:11:37.791Z,99514.47
2022-12-17T06:14:23.362Z,99517.19
2022-12-17T06:17:09.235Z,99507.38
2022-12-17T06:19:55.139Z,99529.94
2022-12-17T06:22:42.330Z,99508.19
2022-12-17T06:25:28.445Z,99529.94
2022-12-17T06:28:18.204Z,99524.72
2022-12-17T06:31:09.811Z,99531.00
2022-12-17T06:33:56.529Z,99544.13
2022-12-17T06:36:42.943Z,99546.66
2022-12-17T06:39:30.265Z,99548.53
2022-12-17T06:42:16.096Z,99554.78
2022-12-17T06:45:02.045Z,99557.28
2022-12-17T06:47:47.960Z,99571.50
2022-12-17T06:50:33.723Z,99576.91
2022-12-17T06:53:21.189Z,99589.25
2022-12-17T06:56:08.651Z,99604.53
2022-12-17T06:58:54.679Z,99618.94
2022-12-17T07:01:41.109Z,99616.44
2022-12-17T07:04:27.308Z,99625.19
2022-12-17T07:07:13.125Z,99626.88
2022-12-17T07:09:59.250Z,99626.66
2022-12-17T07:12:46.346Z,99622.06
2022-12-17T07:15:32.527Z,99622.06
2022-12-17T07:18:20.228Z,99623.28
2022-12-17T07:21:07.614Z,99632.28
2022-12-17T07:23:53.432Z,99629.97
2022-12-17T07:26:39.368Z,99629.50
2022-12-17T07:29:38.213Z,99638.31
2022-12-17T07:32:24.357Z,99637.28
2022-12-17T07:35:09.976Z,99645.22
2022-12-17T07:37:55.880Z,99650.44
2022-12-17T07:40:41.847Z,99662.97
2022-12-17T07:43:31.399Z,99656.69
2022-12-17T07:46:18.402Z,99671.94
2022-12-17T07:49:04.596Z,99668.56
2022-12-17T07:51:50.392Z,99670.03
2022-12-17T07:54:36.227Z,99676.91
2022-12-17T07:57:22.126Z,99682.53
2022-12-17T08:00:07.877Z,99690.44
2022-12-17T08:02:54.952Z,99699.63
2022-12-17T08:05:41.221Z,99720.13
2022-12-17T08:08:27.882Z,99723.03
2022-12-17T08:11:13.769Z,99707.69
2022-12-17T08:13:59.392Z,99706.84
2022-12-17T08:16:45.374Z,99717.88
2022-12-17T08:19:32.577Z,99724.78
2022-12-17T08:22:18.280Z,99730.00
2022-12-17T08:25:04.004Z,99726.00
2022-12-17T08:27:50.147Z,99733.53
2022-12-17T08:30:36.120Z,99733.69
2022-12-17T08:33:23.193Z,99710.63
2022-12-17T08:36:15.786Z,99724.25
2022-12-17T08:39:04.468Z,99712.69
2022-12-17T08:41:54.814Z,99728.16
2022-12-17T08:44:41.671Z,99736.94
2022-12-17T08:47:27.536Z,99750.94
2022-12-17T08:50:13.370Z,99741.50
2022-12-17T08:53:00.547Z,99731.22
2022-12-17T08:55:46.473Z,99737.13
2022-12-17T08:58:32.816Z,99718.50
2022-12-17T09:01:25.205Z,99747.81
2022-12-17T09:04:10.912Z,99733.59
2022-12-17T09:06:56.737Z,99749.09
2022-12-17T09:09:43.935Z,99748.25
2022-12-17T09:12:30.123Z,99749.34
2022-12-17T09:15:16.141Z,99739.72
2022-12-17T09:18:02.098Z,99754.97
2022-12-17T09:21:02.401Z,99767.13
2022-12-17T09:23:48.545Z,99759.63
2022-12-17T09:26:35.762Z,99774.31
2022-12-17T09:29:21.331Z,99763.25
2022-12-17T09:32:07.253Z,99758.63
2022-12-17T09:34:55.091Z,99769.34
2022-12-17T09:37:40.765Z,99777.50
2022-12-17T09:40:34.596Z,99794.44
2022-12-17T09:43:35.244Z,99798.63
2022-12-17T09:46:28.489Z,99773.06
2022-12-17T09:49:22.177Z,99786.25
2022-12-17T09:52:07.918Z,99791.63
2022-12-17T09:55:01.725Z,99792.66
2022-12-17T09:57:51.680Z,99796.38
2022-12-17T10:00:42.209Z,99802.25
2022-12-17T10:03:32.894Z,99817.91
2022-12-17T10:06:26.413Z,99802.59
2022-12-17T10:09:17.429Z,99814.91
2022-12-17T10:12:03.644Z,99811.75
2022-12-17T10:14:50.390Z,99802.94
2022-12-17T10:17:43.172Z,99807.09
2022-12-17T10:20:42.961Z,99809.00
2022-12-17T10:23:28.880Z,99809.59
2022-12-17T10:26:16.470Z,99815.72
2022-12-17T10:29:02.230Z,99814.09
2022-12-17T10:31:50.076Z,99822.75
2022-12-17T10:34:39.422Z,99823.47
2022-12-17T10:37:37.136Z,99825.38
2022-12-17T10:40:44.399Z,99832.75
2022-12-17T10:43:48.620Z,99836.13
2022-12-17T10:46:45.328Z,99839.03
2022-12-17T10:49:35.060Z,99838.78
2022-12-17T10:52:35.033Z,99848.78
2022-12-17T10:55:24.443Z,99868.44
2022-12-17T10:58:11.127Z,99870.31
2022-12-17T11:00:59.017Z,99864.88
2022-12-17T11:03:51.181Z,99866.75
2022-12-17T11:06:46.056Z,99870.09
2022-12-17T11:09:50.607Z,99874.06
2022-12-17T11:12:40.012Z,99875.50
2022-12-17T11:15:39.122Z,99885.28
2022-12-17T11:18:27.721Z,99891.13
2022-12-17T11:21:22.723Z,99894.84
2022-12-17T11:24:10.527Z,99898.16
2022-12-17T11:27:00.303Z,99901.47
2022-12-17T11:29:46.680Z,99907.69
2022-12-17T11:33:11.610Z,99905.81
2022-12-17T11:36:11.824Z,99918.38
2022-12-17T11:39:00.826Z,99918.78
2022-12-17T11:42:08.029Z,99921.72
2022-12-17T11:45:11.198Z,99922.31
2022-12-17T11:48:06.635Z,99918.94
2022-12-17T11:51:03.028Z,99917.72
2022-12-17T11:54:13.919Z,99926.53
2022-12-17T11:57:04.155Z,99928.06
2022-12-17T11:59:58.173Z,99935.63
2022-12-17T12:03:10.426Z,99933.94
2022-12-17T12:06:07.094Z,99939.84
2022-12-17T12:08:59.509Z,99945.28
2022-12-17T12:11:56.793Z,99944.22
2022-12-17T12:14:57.841Z,99946.53
2022-12-17T12:17:59.390Z,99950.28
2022-12-17T12:21:04.776Z,99947.13
2022-12-17T12:24:07.393Z,99950.03
2022-12-17T12:27:01.239Z,99938.06
2022-12-17T12:29:59.633Z,99944.78
2022-12-17T12:32:53.563Z,99950.78
2022-12-17T12:35:45.215Z,99948.84
2022-12-17T12:38:45.707Z,99962.03
2022-12-17T12:41:39.790Z,99961.81
2022-12-17T12:44:49.536Z,99966.00
2022-12-17T12:47:46.468Z,99964.53
2022-12-17T12:50:40.791Z,99974.66
2022-12-17T12:53:31.145Z,99975.31
2022-12-17T12:56:17.063Z,99976.81
2022-12-17T12:59:03.057Z,99971.56
2022-12-17T13:01:54.373Z,99980.63
2022-12-17T13:04:53.369Z,99986.34
2022-12-17T13:07:27.875Z,99984.06
2022-12-17T13:09:58.631Z,99988.44
2022-12-17T13:12:36.140Z,99987.41
2022-12-17T13:15:26.026Z,99999.97
2022-12-17T13:18:16.298Z,99994.50
2022-12-17T13:20:57.378Z,99993.47
2022-12-17T13:23:35.948Z,99996.19
2022-12-17T13:26:25.641Z,100006.25
2022-12-17T13:29:14.363Z,99998.31
2022-12-17T13:31:56.597Z,100014.03
2022-12-17T13:34:35.122Z,100027.66
2022-12-17T13:37:16.350Z,100028.94
2022-12-17T13:40:01.533Z,100033.56
2022-12-17T13:42:32.318Z,100030.81
2022-12-17T13:45:01.820Z,100029.38
2022-12-17T13:47:33.506Z,100038.19
2022-12-17T13:50:32.901Z,100040.31
2022-12-17T13:52:54.802Z,100053.50
2022-12-17T13:55:26.710Z,100058.56
2022-12-17T13:57:56.764Z,100066.97
2022-12-17T14:00:28.879Z,100070.94
2022-12-17T14:02:57.659Z,100084.34
2022-12-17T14:05:30.657Z,100087.28
2022-12-17T14:08:04.169Z,100097.78
2022-12-17T14:10:33.485Z,100093.19
2022-12-17T14:13:06.934Z,100091.31
2022-12-17T14:15:35.776Z,100100.31
2022-12-17T14:18:05.301Z,100115.84
2022-12-17T14:20:36.908Z,100106.41
2022-12-17T14:23:13.619Z,100117.50
2022-12-17T14:25:45.363Z,100109.75
2022-12-17T14:28:25.506Z,100123.38
2022-12-17T14:34:07.494Z,100130.50
2022-12-17T14:36:38.858Z,100132.81
2022-12-17T14:39:19.326Z,100134.47
2022-12-17T14:42:05.568Z,100137.19
2022-12-17T14:44:34.201Z,100149.16
2022-12-17T14:47:15.050Z,100141.81
2022-12-17T14:49:59.711Z,100146.44
2022-12-17T14:52:38.904Z,100144.53
2022-12-17T14:55:33.244Z,100149.56
2022-12-17T14:58:19.067Z,100146.66
2022-12-17T15:00:51.610Z,100146.03
2022-12-17T15:03:24.098Z,100151.69
2022-12-17T15:05:58.910Z,100151.25
2022-12-17T15:08:30.677Z,100160.69
2022-12-17T15:11:00.552Z,100163.63
2022-12-17T15:13:29.319Z,100172.41
2022-12-17T15:15:58.087Z,100176.63
2022-12-17T15:18:26.877Z,100181.41
2022-12-17T15:20:55.884Z,100184.56
2022-12-17T15:23:25.954Z,100184.75
2022-12-17T15:25:56.227Z,100193.97
2022-12-17T15:28:27.700Z,100197.34
2022-12-17T15:30:56.230Z,100194.16
2022-12-17T15:33:24.662Z,100197.34
2022-12-17T15:35:53.314Z,100207.16
2022-12-17T15:38:21.922Z,100209.47
2022-12-17T15:40:53.188Z,100214.91
2022-12-17T15:43:20.581Z,100217.41
2022-12-17T15:45:53.583Z,100221.97
2022-12-17T15:48:24.105Z,100235.34
2022-12-17T15:50:52.631Z,100228.66
2022-12-17T15:53:21.155Z,100234.72
2022-12-17T15:55:49.613Z,100243.03
2022-12-17T15:58:19.188Z,100241.13
2022-12-17T16:00:49.103Z,100248.44
2022-12-17T16:03:17.625Z,100241.09
2022-12-17T16:05:46.406Z,100251.69
2022-12-17T16:08:15.029Z,100249.97
2022-12-17T16:10:44.021Z,100258.72
2022-12-17T16:13:12.826Z,100261.22
2022-12-17T16:15:41.621Z,100262.66
2022-12-17T16:18:11.745Z,100278.50
2022-12-17T16:20:40.427Z,100271.16
2022-12-17T16:23:09.081Z,100283.66
2022-12-17T16:25:37.757Z,100279.66
2022-12-17T16:28:07.327Z,100287.19
2022-12-17T16:30:37.143Z,100281.09
2022-12-17T16:33:07.498Z,100284.84
2022-12-17T16:35:38.738Z,100293.22
2022-12-17T16:38:07.832Z,100297.78
2022-12-17T16:40:37.121Z,100294.44
2022-12-17T16:43:06.362Z,100299.03
2022-12-17T16:45:35.188Z,100308.22
2022-12-17T16:48:04.782Z,100309.25
2022-12-17T16:50:34.796Z,100300.25
2022-12-17T16:53:05.386Z,100305.06
2022-12-17T16:55:35.176Z,100312.56
2022-12-17T16:58:05.046Z,100309.84
2022-12-17T17:00:34.309Z,100305.25
2022-12-17T17:03:03.095Z,100311.72
2022-12-17T17:05:34.272Z,100319.03
2022-12-17T17:08:05.254Z,100317.16
2022-12-17T17:10:36.763Z,100319.22
2022-12-17T17:13:05.670Z,100327.38
2022-12-17T17:15:34.053Z,100329.91
2022-12-17T17:18:02.661Z,100336.16
2022-12-17T17:20:32.513Z,100333.25
2022-12-17T17:23:01.247Z,100337.66
2022-12-17T17:25:54.150Z,100339.53
2022-12-17T17:28:19.739Z,100348.72
2022-12-17T17:30:48.204Z,100356.03
2022-12-17T17:33:16.719Z,100363.31
2022-12-17T17:35:45.089Z,100367.94
2022-12-17T17:38:13.522Z,100366.72
2022-12-17T17:40:43.308Z,100381.09
2022-12-17T17:43:12.818Z,100385.31
2022-12-17T17:45:43.132Z,100376.16
2022-12-17T17:48:11.662Z,100377.44
2022-12-17T17:50:40.604Z,100385.38
2022-12-17T17:53:09.413Z,100388.56
2022-12-17T17:55:37.988Z,100396.50
2022-12-17T17:58:07.732Z,100395.28
2022-12-17T18:00:36.164Z,100408.47
2022-12-17T18:03:05.103Z,100418.75
2022-12-17T18:05:41.738Z,100417.13
2022-12-17T18:08:11.218Z,100423.44
2022-12-17T18:10:39.815Z,100428.50
2022-12-17T18:13:28.265Z,100418.91
2022-12-17T18:16:02.864Z,100424.59
2022-12-17T18:18:31.361Z,100427.38
2022-12-17T18:21:06.466Z,100424.72
2022-12-17T18:23:35.373Z,100429.38
2022-12-17T18:26:12.768Z,100443.41
2022-12-17T18:28:43.685Z,100444.53
2022-12-17T18:31:15.255Z,100443.91
2022-12-17T18:33:47.015Z,100440.81
2022-12-17T18:36:18.235Z,100443.97
2022-12-17T18:38:47.588Z,100449.00
2022-12-17T18:41:37.181Z,100452.38
2022-12-17T18:44:08.275Z,100448.81
2022-12-17T18:46:36.973Z,100458.44
2022-12-17T18:49:08.634Z,100464.75
2022-12-17T18:51:40.141Z,100465.16
2022-12-17T18:54:13.489Z,100469.97
2022-12-17T18:57:02.511Z,100470.34
2022-12-17T18:59:32.703Z,100477.25
2022-12-17T19:02:01.832Z,100480.56
2022-12-17T19:04:30.560Z,100491.19
2022-12-17T19:07:00.035Z,100493.91
2022-12-17T19:09:34.767Z,100496.84
2022-12-17T19:12:04.390Z,100498.91
2022-12-17T19:14:35.068Z,100501.84
2022-12-17T19:17:04.098Z,100504.56
2022-12-17T19:19:33.399Z,100507.47
2022-12-17T19:22:02.203Z,100515.63
2022-12-17T19:24:31.264Z,100509.53
2022-12-17T19:27:00.260Z,100512.66
2022-12-17T19:29:29.114Z,100520.00
2022-12-17T19:31:58.949Z,100515.38
2022-12-17T19:34:27.911Z,100519.13
2022-12-17T19:36:56.529Z,100520.00
2022-12-17T19:39:25.218Z,100528.16
2022-12-17T19:41:54.228Z,100524.75
2022-12-17T19:44:24.006Z,100534.34
2022-12-17T19:46:54.473Z,100538.47
2022-12-17T19:49:24.498Z,100536.97
2022-12-17T19:51:53.240Z,100542.41
2022-12-17T19:54:23.312Z,100542.63
2022-12-17T19:56:52.186Z,100541.13
2022-12-17T19:59:20.859Z,100545.50
2022-12-17T20:01:49.670Z,100552.19
2022-12-17T20:04:18.751Z,100542.34
2022-12-17T20:06:49.363Z,100550.31
2022-12-17T20:09:18.939Z,100554.06
2022-12-17T20:11:47.651Z,100555.94
2022-12-17T20:14:18.947Z,100563.25
2022-12-17T20:16:50.174Z,100553.22
2022-12-17T20:19:22.196Z,100563.06
2022-12-17T20:21:54.241Z,100573.56
2022-12-17T20:24:30.316Z,100576.09
2022-12-17T20:27:01.052Z,100573.38
2022-12-17T20:29:30.181Z,100573.56
2022-12-17T20:31:59.347Z,100583.41
2022-12-17T20:34:28.247Z,100586.13
2022-12-17T20:36:58.331Z,100576.91
2022-12-17T20:39:28.210Z,100581.34
2022-12-17T20:41:58.144Z,100578.41
2022-12-17T20:44:26.902Z,100590.81
2022-12-17T20:46:56.786Z,100600.25
2022-12-17T20:49:25.991Z,100599.88
2022-12-17T20:51:54.505Z,100609.31
2022-12-17T20:54:26.122Z,100605.38
2022-12-17T20:56:54.932Z,100603.72
2022-12-17T20:59:23.456Z,100597.44
2022-12-17T21:01:56.055Z,100613.75
2022-12-17T21:04:25.780Z,100607.25
2022-12-17T21:06:55.109Z,100607.25
2022-12-17T21:09:26.270Z,100616.25
2022-12-17T21:11:54.859Z,100608.94
2022-12-17T21:14:23.929Z,100609.97
2022-12-17T21:16:53.186Z,100613.53
2022-12-17T21:19:21.696Z,100622.53
2022-12-17T21:21:50.704Z,100622.53
2022-12-17T21:24:19.132Z,100629.69
2022-12-17T21:26:49.182Z,100637.63
2022-12-17T21:29:18.510Z,100643.06
2022-12-17T21:31:49.385Z,100643.47
2022-12-17T21:34:22.428Z,100643.66
2022-12-17T21:36:51.679Z,100648.25
2022-12-17T21:39:20.908Z,100650.31
2022-12-17T21:42:05.187Z,100649.31
2022-12-17T21:44:34.072Z,100649.31
2022-12-17T21:47:02.996Z,100656.41
2022-12-17T21:49:31.564Z,100648.47
2022-12-17T21:52:01.244Z,100660.19
2022-12-17T21:54:30.008Z,100657.47
2022-12-17T21:56:59.840Z,100658.50
2022-12-17T21:59:28.345Z,100666.28
2022-12-17T22:01:57.573Z,100655.38
2022-12-17T22:04:26.865Z,100664.38
2022-12-17T22:07:00.309Z,100662.50
2022-12-17T22:09:49.696Z,100662.50
2022-12-17T22:12:43.568Z,100662.31
2022-12-17T22:15:13.008Z,100666.44
2022-12-17T22:17:43.007Z,100668.50
2022-12-17T22:20:12.674Z,100666.84
2022-12-17T22:22:41.143Z,100669.56
2022-12-17T22:25:11.664Z,100675.81
2022-12-17T22:27:42.738Z,100679.59
2022-12-17T22:30:34.630Z,100673.31
2022-12-17T22:33:17.890Z,100675.19
2022-12-17T22:39:29.547Z,100682.50
2022-12-17T22:41:04.148Z,100684.38
2022-12-17T22:44:42.956Z,100683.75
2022-12-17T22:44:51.530Z,100675.97
2022-12-17T22:47:22.526Z,100686.84
2022-12-17T22:49:51.026Z,100685.78
2022-12-17T22:52:20.545Z,100692.28
2022-12-17T22:54:49.186Z,100694.16
2022-12-17T22:57:37.710Z,100692.28
2022-12-17T23:00:18.337Z,100690.56
2022-12-17T23:02:46.790Z,100701.44
2022-12-17T23:05:16.231Z,100702.50
2022-12-17T23:07:44.583Z,100708.94
2022-12-17T23:10:13.002Z,100708.28
2022-12-17T23:12:54.094Z,100708.06
2022-12-17T23:15:28.909Z,100702.84
2022-12-17T23:18:00.506Z,100705.56
2022-12-17T23:20:32.911Z,100705.75
2022-12-17T23:23:01.916Z,100705.94
2022-12-17T23:25:31.115Z,100722.66
2022-12-17T23:27:59.539Z,100712.16
2022-12-17T23:30:29.356Z,100717.13
2022-12-17T23:32:57.771Z,100724.59
2022-12-17T23:35:26.135Z,100725.19
2022-12-17T23:37:54.487Z,100725.75
2022-12-17T23:40:23.396Z,100726.31
2022-12-17T23:42:51.748Z,100737.38
2022-12-17T23:45:20.299Z,100732.16
2022-12-17T23:47:50.043Z,100730.66
2022-12-17T23:50:18.638Z,100730.00
2022-12-17T23:52:47.018Z,100739.34
2022-12-17T23:55:15.425Z,100726.13
2022-12-17T23:57:43.840Z,100733.44
